METAR Data
IDs: Format: Raw Decoded Include TAF

Data at: 0049 UTC 24 May 2019

METAR for:PACD (Cold Bay Arpt, AK, US)
Text:PACD 240039Z 26009KT 10SM BKN018 OVC037 10/05 A3015 RMK AO2 T01000050
Temperature: 10.0°C ( 50°F)
Dewpoint: 5.0°C ( 41°F) [RH = 71%]
Pressure (altimeter):30.15 inches Hg (1021.1 mb)
Winds:from the W (260 degrees) at 10 MPH (9 knots; 4.6 m/s)
Visibility:10 or more sm (16+ km)
Ceiling:1800 feet AGL
Clouds: broken clouds at 1800 feet AGL, overcast cloud deck at 3700 feet AGL
Text:PACD 240024Z 27010KT 10SM SCT017 OVC036 10/05 A3015 RMK AO2 T01000050
Temperature: 10.0°C ( 50°F)
Dewpoint: 5.0°C ( 41°F) [RH = 71%]
Pressure (altimeter):30.15 inches Hg (1021.1 mb)
Winds:from the W (270 degrees) at 12 MPH (10 knots; 5.1 m/s)
Visibility:10 or more sm (16+ km)
Ceiling:3600 feet AGL
Clouds: scattered clouds at 1700 feet AGL, overcast cloud deck at 3600 feet AGL
Text:PACD 232353Z 29010KT 10SM BKN015 OVC030 10/05 A3014 RMK AO2 SLP207 T01000050 10111 20078 50008
Temperature: 10.0°C ( 50°F)
Dewpoint: 5.0°C ( 41°F) [RH = 71%]
Pressure (altimeter):30.14 inches Hg (1020.7 mb) [Sea level pressure: 1020.7 mb]
Winds:from the WNW (290 degrees) at 12 MPH (10 knots; 5.1 m/s)
Visibility:10 or more sm (16+ km)
Ceiling:1500 feet AGL
Clouds: broken clouds at 1500 feet AGL, overcast cloud deck at 3000 feet AGL
Text:PACD 232327Z 29011KT 10SM FEW013 OVC029 10/05 A3014 RMK AO2 T01000050
Temperature: 10.0°C ( 50°F)
Dewpoint: 5.0°C ( 41°F) [RH = 71%]
Pressure (altimeter):30.14 inches Hg (1020.7 mb)
Winds:from the WNW (290 degrees) at 13 MPH (11 knots; 5.7 m/s)
Visibility:10 or more sm (16+ km)
Ceiling:2900 feet AGL
Clouds: few clouds at 1300 feet AGL, overcast cloud deck at 2900 feet AGL
Text:PACD 232253Z 28013KT 10SM FEW014 BKN035 OVC042 10/05 A3014 RMK AO2 SLP207 T01000050
Temperature: 10.0°C ( 50°F)
Dewpoint: 5.0°C ( 41°F) [RH = 71%]
Pressure (altimeter):30.14 inches Hg (1020.7 mb) [Sea level pressure: 1020.7 mb]
Winds:from the W (280 degrees) at 15 MPH (13 knots; 6.7 m/s)
Visibility:10 or more sm (16+ km)
Ceiling:3500 feet AGL
Clouds: few clouds at 1400 feet AGL, broken clouds at 3500 feet AGL, overcast cloud deck at 4200 feet AGL
Text:PACD 232229Z 28014KT 10SM SCT014 SCT024 OVC042 11/06 A3014 RMK AO2 T01060056
Temperature: 10.6°C ( 51°F)
Dewpoint: 5.6°C ( 42°F) [RH = 71%]
Pressure (altimeter):30.14 inches Hg (1020.7 mb)
Winds:from the W (280 degrees) at 16 MPH (14 knots; 7.2 m/s)
Visibility:10 or more sm (16+ km)
Ceiling:4200 feet AGL
Clouds: scattered clouds at 1400 feet AGL, scattered clouds at 2400 feet AGL, overcast cloud deck at 4200 feet AGL
Text:PACD 232153Z 29014KT 10SM SCT016 OVC022 10/05 A3013 RMK AO2 SLP205 T01000050
Temperature: 10.0°C ( 50°F)
Dewpoint: 5.0°C ( 41°F) [RH = 71%]
Pressure (altimeter):30.13 inches Hg (1020.4 mb) [Sea level pressure: 1020.5 mb]
Winds:from the WNW (290 degrees) at 16 MPH (14 knots; 7.2 m/s)
Visibility:10 or more sm (16+ km)
Ceiling:2200 feet AGL
Clouds: scattered clouds at 1600 feet AGL, overcast cloud deck at 2200 feet AGL
Text:PACD 232053Z 28011KT 10SM FEW011 BKN017 OVC045 10/06 A3012 RMK AO2 SLP198 T01000056 51019
Temperature: 10.0°C ( 50°F)
Dewpoint: 5.6°C ( 42°F) [RH = 74%]
Pressure (altimeter):30.12 inches Hg (1020.1 mb) [Sea level pressure: 1019.8 mb]
Winds:from the W (280 degrees) at 13 MPH (11 knots; 5.7 m/s)
Visibility:10 or more sm (16+ km)
Ceiling:1700 feet AGL
Clouds: few clouds at 1100 feet AGL, broken clouds at 1700 feet AGL, overcast cloud deck at 4500 feet AGL
Text:PACD 232002Z 26009KT 10SM BKN015 BKN022 OVC044 09/06 A3011 RMK AO2 T00940056
Temperature: 9.4°C ( 49°F)
Dewpoint: 5.6°C ( 42°F) [RH = 77%]
Pressure (altimeter):30.11 inches Hg (1019.7 mb)
Winds:from the W (260 degrees) at 10 MPH (9 knots; 4.6 m/s)
Visibility:10 or more sm (16+ km)
Ceiling:1500 feet AGL
Clouds: broken clouds at 1500 feet AGL, broken clouds at 2200 feet AGL, overcast cloud deck at 4400 feet AGL
Text:PACD 231953Z 26010KT 10SM FEW009 BKN014 BKN020 09/06 A3010 RMK AO2 SLP194 T00890061
Temperature: 8.9°C ( 48°F)
Dewpoint: 6.1°C ( 43°F) [RH = 83%]
Pressure (altimeter):30.10 inches Hg (1019.4 mb) [Sea level pressure: 1019.4 mb]
Winds:from the W (260 degrees) at 12 MPH (10 knots; 5.1 m/s)
Visibility:10 or more sm (16+ km)
Ceiling:1400 feet AGL
Clouds: few clouds at 900 feet AGL, broken clouds at 1400 feet AGL, broken clouds at 2000 feet AGL
Text:PACD 231912Z 25013KT 10SM FEW009 BKN013 OVC044 09/07 A3008 RMK AO2 T00890067
Temperature: 8.9°C ( 48°F)
Dewpoint: 6.7°C ( 44°F) [RH = 86%]
Pressure (altimeter):30.08 inches Hg (1018.7 mb)
Winds:from the WSW (250 degrees) at 15 MPH (13 knots; 6.7 m/s)
Visibility:10 or more sm (16+ km)
Ceiling:1300 feet AGL
Clouds: few clouds at 900 feet AGL, broken clouds at 1300 feet AGL, overcast cloud deck at 4400 feet AGL
Text:PACD 231905Z 26013KT 10SM BKN009 BKN016 OVC042 08/06 A3008 RMK AO2 CIG 007V014 T00830061
Temperature: 8.3°C ( 47°F)
Dewpoint: 6.1°C ( 43°F) [RH = 86%]
Pressure (altimeter):30.08 inches Hg (1018.7 mb)
Winds:from the W (260 degrees) at 15 MPH (13 knots; 6.7 m/s)
Visibility:10 or more sm (16+ km)
Ceiling:900 feet AGL
Clouds: broken clouds at 900 feet AGL, broken clouds at 1600 feet AGL, overcast cloud deck at 4200 feet AGL
Text:PACD 231853Z 26011KT 10SM SCT013 BKN024 OVC042 09/06 A3008 RMK AO2 SLP185 T00890056
Temperature: 8.9°C ( 48°F)
Dewpoint: 5.6°C ( 42°F) [RH = 80%]
Pressure (altimeter):30.08 inches Hg (1018.7 mb) [Sea level pressure: 1018.5 mb]
Winds:from the W (260 degrees) at 13 MPH (11 knots; 5.7 m/s)
Visibility:10 or more sm (16+ km)
Ceiling:2400 feet AGL
Clouds: scattered clouds at 1300 feet AGL, broken clouds at 2400 feet AGL, overcast cloud deck at 4200 feet AGL

TAF for:PACD (Cold Bay Arpt, AK, US) issued at 2331 UTC 23 May 2019
Text:PACD 232331Z 2400/2424 28015KT P6SM SCT015 SCT025 SCT040
Forecast period:0000 to 0400 UTC 24 May 2019
Forecast type:FROM: standard forecast or significant change
Winds:from the W (280 degrees) at 17 MPH (15 knots; 7.7 m/s)
Visibility:6 or more sm (10+ km)
Ceiling:at least 12,000 feet AGL
Clouds: scattered clouds at 1500 feet AGL, scattered clouds at 2500 feet AGL, scattered clouds at 4000 feet AGL
Text:TEMPO 2400/2404 BKN025
Forecast period:0000 to 0400 UTC 24 May 2019
Forecast type:TEMPORARY: The following changes expected for less than half the time period
Ceiling:2500 feet AGL
Clouds: broken clouds at 2500 feet AGL
Text:FM240400 17010KT P6SM SCT030 SCT100
Forecast period:0400 to 1200 UTC 24 May 2019
Forecast type:FROM: standard forecast or significant change
Winds:from the S (170 degrees) at 12 MPH (10 knots; 5.1 m/s)
Visibility:6 or more sm (10+ km)
Ceiling:at least 12,000 feet AGL
Clouds: scattered clouds at 3000 feet AGL, scattered clouds at 10000 feet AGL
Text:FM241200 12013KT P6SM SCT025 BKN050
Forecast period:1200 to 1800 UTC 24 May 2019
Forecast type:FROM: standard forecast or significant change
Winds:from the ESE (120 degrees) at 15 MPH (13 knots; 6.7 m/s)
Visibility:6 or more sm (10+ km)
Ceiling:5000 feet AGL
Clouds: scattered clouds at 2500 feet AGL, broken clouds at 5000 feet AGL
Text:FM241800 11017G25KT P6SM -RA OVC015
Forecast period:1800 UTC 24 May 2019 to 0000 UTC 25 May 2019
Forecast type:FROM: standard forecast or significant change
Winds:from the ESE (110 degrees) at 20 MPH (17 knots; 8.7 m/s) gusting to 29 MPH (25 knots; 12.9 m/s)
Visibility:6 or more sm (10+ km)
Ceiling:1500 feet AGL
Clouds: overcast cloud deck at 1500 feet AGL
Weather:-RA (light rain)